createdAt,value
2018-12-30T00:00:51.180Z,97.13
2018-12-30T00:01:51.170Z,96.41
2018-12-30T00:02:51.234Z,96.60
2018-12-30T00:03:51.215Z,96.41
2018-12-30T00:04:51.137Z,96.41
2018-12-30T00:05:51.125Z,96.60
2018-12-30T00:06:51.115Z,97.17
2018-12-30T00:07:51.106Z,97.36
2018-12-30T00:08:51.100Z,97.08
2018-12-30T00:09:51.091Z,96.79
2018-12-30T00:10:51.081Z,97.08
2018-12-30T00:11:51.069Z,96.79
2018-12-30T00:12:51.054Z,96.12
2018-12-30T00:13:51.045Z,96.41
2018-12-30T00:14:51.040Z,96.60
2018-12-30T00:15:51.039Z,97.46
2018-12-30T00:16:51.069Z,97.46
2018-12-30T00:17:51.013Z,97.46
2018-12-30T00:18:51.005Z,97.17
2018-12-30T00:19:50.985Z,97.17
2018-12-30T00:20:50.981Z,96.70
2018-12-30T00:21:50.970Z,96.79
2018-12-30T00:22:50.960Z,96.79
2018-12-30T00:23:50.950Z,96.41
2018-12-30T00:24:50.937Z,97.46
2018-12-30T00:25:50.924Z,97.27
2018-12-30T00:26:50.915Z,96.79
2018-12-30T00:27:50.905Z,97.27
2018-12-30T00:28:50.899Z,97.36
2018-12-30T00:29:50.891Z,96.98
2018-12-30T00:30:50.876Z,97.27
2018-12-30T00:31:50.864Z,97.08
2018-12-30T00:32:50.860Z,96.98
2018-12-30T00:33:50.849Z,96.98
2018-12-30T00:34:50.839Z,97.08
2018-12-30T00:35:50.830Z,97.27
2018-12-30T00:36:50.816Z,97.27
2018-12-30T00:37:50.804Z,97.36
2018-12-30T00:38:50.795Z,96.98
2018-12-30T00:39:50.786Z,97.17
2018-12-30T00:40:50.783Z,97.46
2018-12-30T00:41:50.771Z,97.27
2018-12-30T00:42:50.758Z,97.46
2018-12-30T00:43:50.750Z,97.55
2018-12-30T00:44:50.733Z,97.27
2018-12-30T00:45:50.725Z,97.46
2018-12-30T00:46:50.719Z,97.74
2018-12-30T00:47:50.709Z,97.55
2018-12-30T00:48:50.694Z,97.46
2018-12-30T00:49:50.688Z,97.93
2018-12-30T00:50:50.673Z,97.93
2018-12-30T00:51:50.672Z,98.13
2018-12-30T00:52:50.659Z,98.41
2018-12-30T00:53:50.649Z,98.50
2018-12-30T00:54:50.639Z,98.88
2018-12-30T00:55:50.630Z,98.98
2018-12-30T00:56:50.613Z,98.98
2018-12-30T00:57:50.608Z,99.36
2018-12-30T00:58:50.594Z,99.46
2018-12-30T00:59:50.583Z,99.55
2018-12-30T01:00:50.577Z,99.46
2018-12-30T01:01:50.567Z,99.65
2018-12-30T01:02:50.554Z,99.65
2018-12-30T01:03:50.545Z,99.74
2018-12-30T01:04:50.537Z,99.84
2018-12-30T01:05:50.527Z,99.84
2018-12-30T01:06:50.518Z,99.55
2018-12-30T01:07:50.509Z,99.84
2018-12-30T01:08:50.494Z,99.17
2018-12-30T01:09:50.483Z,98.98
2018-12-30T01:10:50.472Z,98.98
2018-12-30T01:11:50.464Z,98.79
2018-12-30T01:12:50.459Z,99.08
2018-12-30T01:13:50.447Z,98.50
2018-12-30T01:14:50.437Z,98.79
2018-12-30T01:15:50.427Z,98.32
2018-12-30T01:16:50.412Z,98.22
2018-12-30T01:17:50.406Z,98.60
2018-12-30T01:18:50.395Z,98.60
2018-12-30T01:19:50.388Z,98.03
2018-12-30T01:20:50.458Z,97.84
2018-12-30T01:21:50.361Z,97.84
2018-12-30T01:22:50.351Z,98.32
2018-12-30T01:23:50.342Z,98.22
2018-12-30T01:24:50.335Z,98.60
2018-12-30T01:25:50.326Z,98.03
2018-12-30T01:26:50.315Z,98.13
2018-12-30T01:27:50.305Z,98.41
2018-12-30T01:28:50.290Z,98.32
2018-12-30T01:29:50.279Z,98.13
2018-12-30T01:30:50.270Z,98.03
2018-12-30T01:31:50.261Z,98.03
2018-12-30T01:32:50.254Z,97.65
2018-12-30T01:33:50.246Z,97.84
2018-12-30T01:34:50.230Z,97.84
2018-12-30T01:35:50.220Z,98.60
2018-12-30T01:36:50.214Z,98.22
2018-12-30T01:37:50.206Z,98.60
2018-12-30T01:38:50.193Z,98.50
2018-12-30T01:39:50.183Z,98.60
2018-12-30T01:40:50.169Z,98.60
2018-12-30T01:41:50.158Z,98.13
2018-12-30T01:42:50.149Z,98.22
2018-12-30T01:43:50.138Z,98.03
2018-12-30T01:44:50.132Z,98.22
2018-12-30T01:45:50.121Z,98.03
2018-12-30T01:46:50.112Z,98.03
2018-12-30T01:47:50.103Z,98.13
2018-12-30T01:48:50.087Z,97.84
2018-12-30T01:49:50.077Z,98.03
2018-12-30T01:50:50.073Z,98.22
2018-12-30T01:51:50.063Z,97.74
2018-12-30T01:52:50.047Z,98.03
2018-12-30T01:53:50.042Z,98.22
2018-12-30T01:54:50.026Z,98.22
2018-12-30T01:55:50.017Z,97.84
2018-12-30T01:56:50.010Z,97.84
2018-12-30T01:57:50.001Z,98.41
2018-12-30T01:58:49.990Z,98.50
2018-12-30T01:59:49.981Z,98.79
2018-12-30T02:00:49.965Z,98.60
2018-12-30T02:01:49.957Z,99.27
2018-12-30T02:02:49.945Z,99.17
2018-12-30T02:03:49.936Z,98.79
2018-12-30T02:04:49.931Z,99.08
2018-12-30T02:05:49.920Z,99.27
2018-12-30T02:06:49.905Z,98.98
2018-12-30T02:07:49.895Z,98.69
2018-12-30T02:08:49.890Z,99.27
2018-12-30T02:09:49.880Z,98.98
2018-12-30T02:10:49.868Z,98.98
2018-12-30T02:11:49.860Z,98.98
2018-12-30T02:12:49.846Z,98.98
2018-12-30T02:13:49.835Z,98.98
2018-12-30T02:14:49.824Z,99.84
2018-12-30T02:15:49.814Z,98.98
2018-12-30T02:16:49.807Z,99.46
2018-12-30T02:17:49.799Z,99.27
2018-12-30T02:18:49.789Z,99.17
2018-12-30T02:19:49.778Z,98.98
2018-12-30T02:20:49.807Z,99.17
2018-12-30T02:21:49.755Z,98.98
2018-12-30T02:22:49.748Z,99.08
2018-12-30T02:23:49.747Z,98.79
2018-12-30T02:24:49.723Z,98.98
2018-12-30T02:25:49.713Z,98.60
2018-12-30T02:26:49.703Z,98.88
2018-12-30T02:27:49.692Z,98.22
2018-12-30T02:28:49.686Z,98.50
2018-12-30T02:29:49.677Z,99.08
2018-12-30T02:30:49.663Z,98.50
2018-12-30T02:31:49.654Z,98.50
2018-12-30T02:32:49.647Z,98.98
2018-12-30T02:33:49.637Z,98.98
2018-12-30T02:34:49.625Z,98.60
2018-12-30T02:35:49.621Z,98.41
2018-12-30T02:36:49.602Z,98.22
2018-12-30T02:37:49.591Z,98.50
2018-12-30T02:38:49.585Z,97.93
2018-12-30T02:39:49.575Z,98.79
2018-12-30T02:40:49.562Z,98.60
2018-12-30T02:41:49.554Z,98.50
2018-12-30T02:42:49.543Z,98.98
2018-12-30T02:43:49.532Z,98.88
2018-12-30T02:44:49.525Z,99.08
2018-12-30T02:45:49.515Z,98.69
2018-12-30T02:46:49.506Z,99.17
2018-12-30T02:47:49.496Z,98.98
2018-12-30T02:48:49.484Z,98.60
2018-12-30T02:49:49.471Z,98.79
2018-12-30T02:50:49.461Z,98.32
2018-12-30T02:51:50.350Z,98.22
2018-12-30T02:52:49.445Z,98.41
2018-12-30T02:53:49.441Z,98.41
2018-12-30T02:54:49.420Z,97.84
2018-12-30T02:55:49.411Z,97.93
2018-12-30T02:56:49.403Z,97.84
2018-12-30T02:57:49.393Z,97.93
2018-12-30T02:58:49.387Z,97.93
2018-12-30T02:59:49.377Z,98.13
2018-12-30T03:00:49.360Z,98.03
2018-12-30T03:01:49.359Z,97.93
2018-12-30T03:02:49.341Z,98.22
2018-12-30T03:03:49.331Z,98.03
2018-12-30T03:04:49.324Z,98.69
2018-12-30T03:05:49.315Z,98.03
2018-12-30T03:06:49.305Z,98.13
2018-12-30T03:07:49.296Z,97.93
2018-12-30T03:08:49.279Z,98.13
2018-12-30T03:09:49.269Z,98.22
2018-12-30T03:10:49.265Z,98.22
2018-12-30T03:11:49.255Z,98.03
2018-12-30T03:12:49.241Z,98.22
2018-12-30T03:13:49.229Z,98.22
2018-12-30T03:14:49.220Z,97.93
2018-12-30T03:15:49.213Z,98.22
2018-12-30T03:16:49.206Z,97.93
2018-12-30T03:17:49.196Z,98.03
2018-12-30T03:18:49.187Z,97.93
2018-12-30T03:19:49.176Z,97.84
2018-12-30T03:20:49.160Z,98.03
2018-12-30T03:21:49.151Z,98.13
2018-12-30T03:22:49.140Z,97.84
2018-12-30T03:23:49.131Z,98.13
2018-12-30T03:24:49.126Z,97.93
2018-12-30T03:25:49.114Z,98.03
2018-12-30T03:26:49.101Z,97.84
2018-12-30T03:27:49.093Z,98.22
2018-12-30T03:28:49.085Z,98.41
2018-12-30T03:29:49.076Z,98.22
2018-12-30T03:30:49.068Z,97.84
2018-12-30T03:31:49.058Z,98.13
2018-12-30T03:32:49.041Z,98.22
2018-12-30T03:33:49.032Z,98.03
2018-12-30T03:34:49.021Z,98.22
2018-12-30T03:35:49.012Z,98.22
2018-12-30T03:36:49.005Z,98.22
2018-12-30T03:37:48.996Z,98.13
2018-12-30T03:38:48.996Z,98.22
2018-12-30T03:39:48.978Z,98.03
2018-12-30T03:40:48.962Z,98.22
2018-12-30T03:41:48.951Z,97.84
2018-12-30T03:42:48.946Z,98.13
2018-12-30T03:43:48.937Z,98.22
2018-12-30T03:44:48.924Z,98.22
2018-12-30T03:45:48.910Z,98.13
2018-12-30T03:46:48.900Z,97.93
2018-12-30T03:47:48.891Z,98.41
2018-12-30T03:48:48.884Z,97.84
2018-12-30T03:49:48.875Z,98.41
2018-12-30T03:50:48.865Z,98.22
2018-12-30T03:51:48.856Z,97.46
2018-12-30T03:52:48.840Z,97.84
2018-12-30T03:53:48.831Z,97.84
2018-12-30T03:54:48.822Z,97.46
2018-12-30T03:55:48.812Z,97.46
2018-12-30T03:56:48.873Z,97.74
2018-12-30T03:57:48.796Z,98.41
2018-12-30T03:58:48.782Z,97.27
2018-12-30T03:59:48.772Z,97.93
2018-12-30T04:00:48.766Z,98.03
2018-12-30T04:01:48.850Z,97.55
2018-12-30T04:02:48.746Z,97.74
2018-12-30T04:03:48.739Z,97.36
2018-12-30T04:04:48.721Z,97.36
2018-12-30T04:05:48.710Z,98.32
2018-12-30T04:06:48.701Z,98.03
2018-12-30T04:07:48.692Z,98.13
2018-12-30T04:08:48.693Z,97.93
2018-12-30T04:09:48.676Z,98.22
2018-12-30T04:10:48.667Z,97.55
2018-12-30T04:11:48.658Z,98.22
2018-12-30T04:12:48.642Z,97.27
2018-12-30T04:13:48.635Z,97.55
2018-12-30T04:14:48.700Z,97.74
2018-12-30T04:15:48.617Z,98.32
2018-12-30T04:16:48.603Z,97.55
2018-12-30T04:17:48.592Z,98.13
2018-12-30T04:18:48.586Z,98.22
2018-12-30T04:19:48.573Z,97.93
2018-12-30T04:20:48.566Z,98.50
2018-12-30T04:21:48.555Z,98.22
2018-12-30T04:22:48.548Z,97.84
2018-12-30T04:23:48.537Z,97.55
2018-12-30T04:24:48.525Z,97.36
2018-12-30T04:25:48.513Z,97.46
2018-12-30T04:26:48.510Z,98.22
2018-12-30T04:27:48.494Z,97.55
2018-12-30T04:28:48.504Z,97.74
2018-12-30T04:29:48.482Z,98.03
2018-12-30T04:30:48.461Z,98.22
2018-12-30T04:31:48.453Z,98.41
2018-12-30T04:32:48.448Z,97.93
2018-12-30T04:33:48.436Z,97.55
2018-12-30T04:34:48.429Z,98.32
2018-12-30T04:35:48.417Z,98.03
2018-12-30T04:36:48.402Z,98.03
2018-12-30T04:37:48.392Z,98.41
2018-12-30T04:38:48.382Z,98.22
2018-12-30T04:39:48.375Z,98.13
2018-12-30T04:40:48.367Z,98.03
2018-12-30T04:41:48.357Z,98.03
2018-12-30T04:42:48.348Z,98.22
2018-12-30T04:43:48.338Z,97.84
2018-12-30T04:44:48.321Z,98.03
2018-12-30T04:45:48.315Z,98.22
2018-12-30T04:46:48.307Z,98.22
2018-12-30T04:47:48.299Z,98.03
2018-12-30T04:48:48.281Z,98.03
2018-12-30T04:49:48.273Z,97.93
2018-12-30T04:50:48.263Z,98.03
2018-12-30T04:51:48.252Z,98.22
2018-12-30T04:52:48.246Z,97.84
2018-12-30T04:53:48.238Z,98.41
2018-12-30T04:54:48.227Z,98.60
2018-12-30T04:55:48.217Z,98.03
2018-12-30T04:56:48.202Z,98.41
2018-12-30T04:57:48.192Z,98.32
2018-12-30T04:58:48.182Z,98.60
2018-12-30T04:59:48.171Z,98.50
2018-12-30T05:00:48.166Z,98.41
2018-12-30T05:01:48.160Z,98.69
2018-12-30T05:02:48.142Z,98.60
2018-12-30T05:03:48.132Z,99.08
2018-12-30T05:04:48.128Z,98.88
2018-12-30T05:05:48.117Z,99.08
2018-12-30T05:06:48.107Z,99.36
2018-12-30T05:07:48.097Z,98.98
2018-12-30T05:08:48.081Z,98.79
2018-12-30T05:09:48.072Z,98.69
2018-12-30T05:10:48.062Z,98.98
2018-12-30T05:11:48.053Z,98.79
2018-12-30T05:12:48.047Z,99.08
2018-12-30T05:13:48.037Z,98.79
2018-12-30T05:14:48.025Z,98.79
2018-12-30T05:15:48.016Z,98.60
2018-12-30T05:16:48.017Z,98.88
2018-12-30T05:17:47.996Z,98.50
2018-12-30T05:18:48.000Z,98.79
2018-12-30T05:19:47.977Z,98.79
2018-12-30T05:20:47.962Z,98.60
2018-12-30T05:21:47.951Z,99.08
2018-12-30T05:22:47.941Z,98.69
2018-12-30T05:23:47.933Z,98.88
2018-12-30T05:24:47.926Z,99.17
2018-12-30T05:25:47.917Z,98.88
2018-12-30T05:26:47.906Z,98.69
2018-12-30T05:27:47.896Z,98.88
2018-12-30T05:28:47.881Z,99.65
2018-12-30T05:29:47.870Z,99.65
2018-12-30T05:30:47.861Z,98.98
2018-12-30T05:31:47.853Z,99.65
2018-12-30T05:32:47.857Z,99.36
2018-12-30T05:33:47.834Z,99.55
2018-12-30T05:34:47.820Z,99.36
2018-12-30T05:35:47.813Z,99.46
2018-12-30T05:36:47.805Z,99.55
2018-12-30T05:37:47.794Z,99.65
2018-12-30T05:38:47.786Z,99.46
2018-12-30T05:39:47.775Z,99.65
2018-12-30T05:40:47.760Z,99.84
2018-12-30T05:41:47.752Z,99.74
2018-12-30T05:42:47.741Z,99.46
2018-12-30T05:43:47.730Z,99.46
2018-12-30T05:44:47.723Z,99.36
2018-12-30T05:45:47.720Z,99.84
2018-12-30T05:46:47.704Z,99.46
2018-12-30T05:47:47.695Z,98.88
2018-12-30T05:48:47.679Z,99.65
2018-12-30T05:49:47.669Z,99.65
2018-12-30T05:50:47.665Z,99.27
2018-12-30T05:51:47.655Z,99.46
2018-12-30T05:52:47.638Z,99.84
2018-12-30T05:53:47.630Z,99.84
2018-12-30T05:54:47.618Z,99.46
2018-12-30T05:55:47.609Z,99.27
2018-12-30T05:56:47.603Z,99.74
2018-12-30T05:57:47.593Z,99.84
2018-12-30T05:58:47.583Z,99.46
2018-12-30T05:59:47.573Z,99.99
2018-12-30T06:00:47.557Z,99.46
2018-12-30T06:01:47.547Z,99.84
2018-12-30T06:02:47.537Z,99.99
2018-12-30T06:03:47.527Z,99.99
2018-12-30T06:04:47.522Z,99.46
2018-12-30T06:05:47.512Z,99.65
2018-12-30T06:06:47.497Z,99.74
2018-12-30T06:07:47.488Z,99.65
2018-12-30T06:08:47.483Z,99.65
2018-12-30T06:09:47.472Z,99.74
2018-12-30T06:10:47.461Z,99.46
2018-12-30T06:11:47.455Z,99.93
2018-12-30T06:12:47.437Z,99.93
2018-12-30T06:13:47.431Z,99.99
2018-12-30T06:14:47.416Z,99.99
2018-12-30T06:15:47.407Z,99.99
2018-12-30T06:16:47.401Z,99.99
2018-12-30T06:17:47.391Z,99.99
2018-12-30T06:18:47.382Z,99.93
2018-12-30T06:19:47.372Z,99.65
2018-12-30T06:20:47.357Z,99.99
2018-12-30T06:21:47.346Z,99.93
2018-12-30T06:22:49.614Z,99.84
2018-12-30T06:23:47.331Z,99.99
2018-12-30T06:24:47.315Z,99.99
2018-12-30T06:25:47.306Z,99.93
2018-12-30T06:26:47.295Z,99.93
2018-12-30T06:27:47.285Z,99.99
2018-12-30T06:28:47.281Z,99.99
2018-12-30T06:29:47.269Z,99.93
2018-12-30T06:30:47.260Z,99.74
2018-12-30T06:31:47.250Z,99.36
2018-12-30T06:32:47.235Z,99.36
2018-12-30T06:33:47.225Z,99.93
2018-12-30T06:34:47.214Z,99.84
2018-12-30T06:35:47.205Z,99.99
2018-12-30T06:36:47.199Z,99.93
2018-12-30T06:37:47.189Z,99.46
2018-12-30T06:38:47.173Z,99.93
2018-12-30T06:39:47.164Z,99.93
2018-12-30T06:40:47.159Z,99.93
2018-12-30T06:41:47.149Z,99.55
2018-12-30T06:42:47.137Z,99.65
2018-12-30T06:43:47.128Z,99.99
2018-12-30T06:44:47.114Z,99.36
2018-12-30T06:45:47.104Z,99.65
2018-12-30T06:46:47.092Z,99.93
2018-12-30T06:47:47.083Z,99.65
2018-12-30T06:48:47.076Z,99.84
2018-12-30T06:49:47.068Z,99.46
2018-12-30T06:50:47.059Z,99.84
2018-12-30T06:51:47.047Z,99.99
2018-12-30T06:52:47.031Z,99.93
2018-12-30T06:53:47.021Z,99.84
2018-12-30T06:54:47.017Z,99.65
2018-12-30T06:55:47.007Z,99.74
2018-12-30T06:56:46.991Z,99.65
2018-12-30T06:57:46.980Z,99.65
2018-12-30T06:58:46.972Z,99.46
2018-12-30T06:59:46.965Z,99.88
2018-12-30T07:00:46.955Z,99.84
2018-12-30T07:01:46.945Z,99.36
2018-12-30T07:02:46.938Z,99.69
2018-12-30T07:03:46.925Z,99.50
2018-12-30T07:04:46.908Z,99.88
2018-12-30T07:05:46.899Z,99.79
2018-12-30T07:06:46.888Z,99.65
2018-12-30T07:07:46.880Z,99.99
2018-12-30T07:08:46.873Z,99.99
2018-12-30T07:09:46.863Z,99.46
2018-12-30T07:10:46.848Z,99.60
2018-12-30T07:11:46.838Z,99.99
2018-12-30T07:12:46.831Z,99.99
2018-12-30T07:13:46.821Z,99.17
2018-12-30T07:14:46.812Z,99.36
2018-12-30T07:15:46.801Z,99.36
2018-12-30T07:16:46.786Z,99.36
2018-12-30T07:17:46.776Z,99.93
2018-12-30T07:18:46.765Z,99.99
2018-12-30T07:19:46.757Z,99.99
2018-12-30T07:20:46.748Z,99.99
2018-12-30T07:21:46.741Z,99.99
2018-12-30T07:22:46.730Z,99.99
2018-12-30T07:23:46.719Z,99.99
2018-12-30T07:24:46.705Z,99.99
2018-12-30T07:25:46.744Z,99.99
2018-12-30T07:26:46.689Z,99.93
2018-12-30T07:27:46.679Z,99.99
2018-12-30T07:28:46.664Z,99.99
2018-12-30T07:29:46.653Z,99.99
2018-12-30T07:30:46.643Z,99.99
2018-12-30T07:31:46.632Z,99.99
2018-12-30T07:32:46.626Z,99.99
2018-12-30T07:33:46.619Z,99.99
2018-12-30T07:34:46.605Z,99.99
2018-12-30T07:35:46.597Z,99.99
2018-12-30T07:36:46.581Z,99.99
2018-12-30T07:37:46.570Z,99.99
2018-12-30T07:38:46.560Z,99.99
2018-12-30T07:39:46.552Z,99.99
2018-12-30T07:40:46.545Z,99.99
2018-12-30T07:41:46.536Z,99.99
2018-12-30T07:42:46.520Z,99.99
2018-12-30T07:43:46.515Z,99.99
2018-12-30T07:44:46.503Z,99.99
2018-12-30T07:45:46.495Z,99.99
2018-12-30T07:46:46.482Z,99.99
2018-12-30T07:47:46.474Z,99.99
2018-12-30T07:48:46.459Z,99.99
2018-12-30T07:49:46.448Z,99.99
2018-12-30T07:50:46.439Z,99.99
2018-12-30T07:51:46.432Z,99.99
2018-12-30T07:52:46.422Z,99.99
2018-12-30T07:53:46.413Z,99.99
2018-12-30T07:54:46.404Z,99.99
2018-12-30T07:55:46.391Z,99.99
2018-12-30T07:56:46.377Z,99.99
2018-12-30T07:57:46.366Z,99.99
2018-12-30T07:58:46.362Z,99.99
2018-12-30T07:59:46.352Z,99.74
2018-12-30T08:00:46.336Z,99.99
2018-12-30T08:01:46.327Z,99.93
2018-12-30T08:02:46.317Z,99.99
2018-12-30T08:03:46.307Z,99.65
2018-12-30T08:04:46.300Z,99.99
2018-12-30T08:05:46.291Z,99.99
2018-12-30T08:06:46.281Z,99.99
2018-12-30T08:07:46.270Z,99.46
2018-12-30T08:08:46.256Z,99.99
2018-12-30T08:09:46.244Z,99.74
2018-12-30T08:10:46.847Z,99.99
2018-12-30T08:11:46.228Z,99.99
2018-12-30T08:12:46.219Z,99.99
2018-12-30T08:13:46.209Z,99.99
2018-12-30T08:14:46.194Z,99.99
2018-12-30T08:15:46.185Z,99.99
2018-12-30T08:16:46.179Z,99.99
2018-12-30T08:17:46.169Z,99.99
2018-12-30T08:18:46.160Z,99.93
2018-12-30T08:19:46.150Z,99.93
2018-12-30T08:20:46.135Z,99.99
2018-12-30T08:21:46.124Z,99.93
2018-12-30T08:22:46.115Z,99.36
2018-12-30T08:23:46.105Z,99.36
2018-12-30T08:24:46.099Z,99.36
2018-12-30T08:25:46.090Z,99.84
2018-12-30T08:26:46.080Z,99.46
2018-12-30T08:27:46.073Z,99.65
2018-12-30T08:28:46.055Z,98.98
2018-12-30T08:29:46.044Z,99.17
2018-12-30T08:30:46.044Z,98.69
2018-12-30T08:31:46.029Z,98.60
2018-12-30T08:32:46.014Z,98.98
2018-12-30T08:33:46.005Z,98.84
2018-12-30T08:34:45.996Z,98.84
2018-12-30T08:35:45.985Z,99.03
2018-12-30T08:36:45.980Z,98.84
2018-12-30T08:37:45.981Z,99.69
2018-12-30T08:38:45.961Z,98.84
2018-12-30T08:39:46.003Z,97.89
2018-12-30T08:40:45.936Z,97.89
2018-12-30T08:41:45.928Z,97.89
2018-12-30T08:42:45.981Z,98.36
2018-12-30T08:43:45.909Z,98.08
2018-12-30T08:44:45.902Z,97.51
2018-12-30T08:45:45.952Z,97.41
2018-12-30T08:46:45.879Z,97.31
2018-12-30T08:47:45.870Z,97.22
2018-12-30T08:48:45.863Z,97.31
2018-12-30T08:49:45.856Z,97.79
2018-12-30T08:50:45.846Z,98.27
2018-12-30T08:51:45.837Z,97.51
2018-12-30T08:52:45.822Z,97.41
2018-12-30T08:53:45.811Z,97.41
2018-12-30T08:54:45.803Z,97.51
2018-12-30T08:55:45.797Z,97.79
2018-12-30T08:56:45.788Z,97.51
2018-12-30T08:57:45.779Z,98.27
2018-12-30T08:58:45.771Z,97.70
2018-12-30T08:59:45.763Z,97.31
2018-12-30T09:00:45.746Z,97.65
2018-12-30T09:01:45.737Z,96.98
2018-12-30T09:02:45.734Z,97.27
2018-12-30T09:03:45.725Z,96.98
2018-12-30T09:04:45.711Z,97.08
2018-12-30T09:05:45.701Z,97.36
2018-12-30T09:06:45.691Z,97.65
2018-12-30T09:07:45.684Z,97.56
2018-12-30T09:08:45.677Z,97.22
2018-12-30T09:09:45.668Z,96.94
2018-12-30T09:10:45.662Z,97.13
2018-12-30T09:11:45.652Z,97.70
2018-12-30T09:12:45.638Z,97.41
2018-12-30T09:13:45.631Z,96.36
2018-12-30T09:14:45.619Z,96.22
2018-12-30T09:15:45.611Z,96.13
2018-12-30T09:16:45.608Z,95.84
2018-12-30T09:17:45.598Z,95.84
2018-12-30T09:18:45.586Z,95.46
2018-12-30T09:19:45.577Z,95.08
2018-12-30T09:20:45.572Z,94.89
2018-12-30T09:21:45.564Z,95.27
2018-12-30T09:22:45.555Z,94.51
2018-12-30T09:23:45.548Z,94.41
2018-12-30T09:24:45.534Z,94.70
2018-12-30T09:25:45.527Z,94.70
2018-12-30T09:26:45.520Z,94.41
2018-12-30T09:27:45.510Z,94.89
2018-12-30T09:28:45.506Z,94.70
2018-12-30T09:29:45.496Z,94.32
2018-12-30T09:30:45.489Z,94.51
2018-12-30T09:31:45.483Z,95.08
2018-12-30T09:32:45.467Z,95.08
2018-12-30T09:33:45.459Z,94.51
2018-12-30T09:34:45.457Z,94.27
2018-12-30T09:35:45.449Z,93.88
2018-12-30T09:36:45.435Z,93.70
2018-12-30T09:37:45.428Z,93.51
2018-12-30T09:38:45.420Z,93.51
2018-12-30T09:39:45.413Z,93.07
2018-12-30T09:40:45.409Z,93.26
2018-12-30T09:41:45.400Z,92.79
2018-12-30T09:42:45.394Z,92.31
2018-12-30T09:43:45.385Z,92.12
2018-12-30T09:44:45.372Z,92.69
2018-12-30T09:45:45.367Z,92.31
2018-12-30T09:46:45.359Z,92.02
2018-12-30T09:47:45.350Z,92.36
2018-12-30T09:48:45.348Z,91.98
2018-12-30T09:49:45.341Z,92.26
2018-12-30T09:50:45.329Z,92.36
2018-12-30T09:51:45.320Z,92.26
2018-12-30T09:52:45.318Z,93.60
2018-12-30T09:53:45.494Z,93.12
2018-12-30T09:54:45.303Z,92.65
2018-12-30T09:55:45.295Z,93.12
2018-12-30T09:56:45.282Z,92.88
2018-12-30T09:57:45.275Z,93.17
2018-12-30T09:58:45.268Z,93.08
2018-12-30T09:59:45.261Z,93.46
2018-12-30T10:00:45.257Z,93.46
2018-12-30T10:01:45.250Z,93.12
2018-12-30T10:02:45.241Z,93.51
2018-12-30T10:03:45.233Z,93.79
2018-12-30T10:04:45.220Z,93.36
2018-12-30T10:05:45.213Z,94.07
2018-12-30T10:06:45.210Z,92.88
2018-12-30T10:07:45.204Z,93.36
2018-12-30T10:08:45.190Z,92.60
2018-12-30T10:09:45.182Z,92.60
2018-12-30T10:10:45.176Z,92.60
2018-12-30T10:11:45.169Z,92.02
2018-12-30T10:12:45.165Z,92.50
2018-12-30T10:13:45.158Z,92.12
2018-12-30T10:14:45.151Z,92.41
2018-12-30T10:15:45.145Z,91.64
2018-12-30T10:16:45.134Z,92.60
2018-12-30T10:17:45.124Z,92.21
2018-12-30T10:18:45.116Z,92.60
2018-12-30T10:19:45.109Z,92.07
2018-12-30T10:20:45.107Z,91.50
2018-12-30T10:21:45.099Z,92.46
2018-12-30T10:22:45.089Z,92.36
2018-12-30T10:23:52.789Z,92.36
2018-12-30T10:24:45.077Z,92.55
2018-12-30T10:25:45.071Z,92.93
2018-12-30T10:26:45.062Z,92.83
2018-12-30T10:27:45.059Z,93.12
2018-12-30T10:28:45.043Z,93.22
2018-12-30T10:29:45.037Z,93.02
2018-12-30T10:30:45.029Z,93.31
2018-12-30T10:31:45.021Z,92.88
2018-12-30T10:32:45.018Z,93.12
2018-12-30T10:33:45.010Z,93.84
2018-12-30T10:34:45.002Z,93.79
2018-12-30T10:35:44.995Z,93.74
2018-12-30T10:36:44.982Z,93.55
2018-12-30T10:37:44.976Z,93.84
2018-12-30T10:38:44.972Z,93.51
2018-12-30T10:39:44.965Z,93.55
2018-12-30T10:40:44.952Z,93.70
2018-12-30T10:41:44.944Z,93.55
2018-12-30T10:42:44.937Z,93.17
2018-12-30T10:43:44.931Z,93.65
2018-12-30T10:44:44.927Z,93.17
2018-12-30T10:45:44.926Z,93.08
2018-12-30T10:46:44.912Z,93.93
2018-12-30T10:47:44.905Z,93.93
2018-12-30T10:48:44.893Z,93.65
2018-12-30T10:49:44.884Z,93.84
2018-12-30T10:50:44.878Z,93.74
2018-12-30T10:51:44.869Z,94.03
2018-12-30T10:52:44.866Z,94.70
2018-12-30T10:53:44.858Z,93.84
2018-12-30T10:54:44.847Z,94.70
2018-12-30T10:55:45.778Z,94.65
2018-12-30T10:56:44.837Z,94.32
2018-12-30T10:57:44.826Z,93.55
2018-12-30T10:58:44.820Z,93.55
2018-12-30T10:59:44.812Z,93.84
2018-12-30T11:00:44.798Z,93.36
2018-12-30T11:01:44.792Z,93.08
2018-12-30T11:02:44.785Z,94.03
2018-12-30T11:03:44.776Z,93.46
2018-12-30T11:04:44.772Z,93.60
2018-12-30T11:05:44.765Z,93.51
2018-12-30T11:06:44.758Z,93.51
2018-12-30T11:07:44.752Z,93.88
2018-12-30T11:08:44.736Z,93.12
2018-12-30T11:09:44.731Z,93.41
2018-12-30T11:10:44.727Z,93.55
2018-12-30T11:11:44.719Z,93.79
2018-12-30T11:12:44.706Z,93.12
2018-12-30T11:13:44.698Z,93.12
2018-12-30T11:14:44.776Z,93.55
2018-12-30T11:15:44.683Z,93.74
2018-12-30T11:16:44.679Z,93.08
2018-12-30T11:17:44.670Z,93.27
2018-12-30T11:18:44.665Z,93.08
2018-12-30T11:19:44.654Z,93.36
2018-12-30T11:20:44.643Z,93.36
2018-12-30T11:21:44.635Z,93.17
2018-12-30T11:22:44.627Z,93.08
2018-12-30T11:23:44.620Z,93.84
2018-12-30T11:24:44.616Z,93.27
2018-12-30T11:25:44.610Z,93.55
2018-12-30T11:26:44.598Z,93.27
2018-12-30T11:27:44.587Z,93.08
2018-12-30T11:28:44.584Z,93.84
2018-12-30T11:29:44.579Z,93.74
2018-12-30T11:30:44.567Z,93.74
2018-12-30T11:31:44.560Z,93.74
2018-12-30T11:32:44.547Z,93.74
2018-12-30T11:33:44.543Z,94.03
2018-12-30T11:34:44.530Z,94.60
2018-12-30T11:35:44.522Z,94.32
2018-12-30T11:36:44.518Z,93.65
2018-12-30T11:37:44.511Z,93.93
2018-12-30T11:38:44.503Z,94.12
2018-12-30T11:39:44.495Z,93.17
2018-12-30T11:40:44.482Z,93.17
2018-12-30T11:41:44.473Z,93.17
2018-12-30T11:42:44.470Z,93.84
2018-12-30T11:43:44.462Z,94.03
2018-12-30T11:44:44.450Z,94.32
2018-12-30T11:45:44.441Z,93.74
2018-12-30T11:46:44.433Z,94.32
2018-12-30T11:47:44.425Z,93.74
2018-12-30T11:48:44.419Z,93.74
2018-12-30T11:49:44.413Z,94.03
2018-12-30T11:50:44.403Z,94.60
2018-12-30T11:51:44.396Z,94.22
2018-12-30T11:52:44.381Z,94.03
2018-12-30T11:53:44.373Z,94.22
2018-12-30T11:54:44.367Z,94.46
2018-12-30T11:55:44.358Z,94.84
2018-12-30T11:56:44.353Z,94.17
2018-12-30T11:57:44.345Z,94.74
2018-12-30T11:58:44.332Z,94.93
2018-12-30T11:59:44.324Z,94.56
2018-12-30T12:00:44.321Z,94.65
2018-12-30T12:01:44.313Z,94.56
2018-12-30T12:02:44.302Z,94.74
2018-12-30T12:03:44.293Z,95.32
2018-12-30T12:04:44.281Z,94.74
2018-12-30T12:05:44.272Z,94.74
2018-12-30T12:06:44.267Z,94.98
2018-12-30T12:07:44.255Z,93.79
2018-12-30T12:08:44.252Z,95.03
2018-12-30T12:09:44.246Z,94.56
2018-12-30T12:10:44.235Z,95.03
2018-12-30T12:11:44.227Z,95.32
2018-12-30T12:12:48.902Z,95.22
2018-12-30T12:13:44.205Z,95.12
2018-12-30T12:14:44.234Z,94.17
2018-12-30T12:15:44.194Z,94.60
2018-12-30T12:16:44.179Z,95.32
2018-12-30T12:17:44.172Z,94.79
2018-12-30T12:18:44.165Z,94.89
2018-12-30T12:19:44.156Z,94.98
2018-12-30T12:20:44.151Z,94.84
2018-12-30T12:21:44.143Z,94.51
2018-12-30T12:22:44.136Z,94.84
2018-12-30T12:23:44.129Z,94.41
2018-12-30T12:24:44.114Z,94.98
2018-12-30T12:25:44.105Z,95.94
2018-12-30T12:26:44.097Z,95.46
2018-12-30T12:27:44.092Z,95.56
2018-12-30T12:28:44.083Z,94.98
2018-12-30T12:29:44.077Z,94.79
2018-12-30T12:30:44.063Z,94.41
2018-12-30T12:31:44.054Z,94.65
2018-12-30T12:32:44.048Z,94.74
2018-12-30T12:33:44.047Z,94.89
2018-12-30T12:34:44.039Z,95.32
2018-12-30T12:35:44.029Z,95.51
2018-12-30T12:36:44.011Z,94.84
2018-12-30T12:37:44.003Z,94.98
2018-12-30T12:38:43.997Z,94.79
2018-12-30T12:39:43.986Z,94.98
2018-12-30T12:40:43.982Z,95.17
2018-12-30T12:41:43.980Z,95.37
2018-12-30T12:42:43.966Z,95.17
2018-12-30T12:43:43.958Z,94.41
2018-12-30T12:44:43.951Z,94.32
2018-12-30T12:45:43.936Z,95.08
2018-12-30T12:46:43.940Z,94.32
2018-12-30T12:47:43.924Z,94.70
2018-12-30T12:48:43.910Z,94.22
2018-12-30T12:49:43.903Z,94.70
2018-12-30T12:50:43.895Z,94.22
2018-12-30T12:51:43.887Z,94.32
2018-12-30T12:52:43.883Z,94.32